sensor_id;sensor_type;location;lat;lon;timestamp;P1;durP1;ratioP1;P2;durP2;ratioP2
703;SDS011;335;48.694;9.120;2022-07-29T00:00:00;10.10;;;9.40;;
703;SDS011;335;48.694;9.120;2022-07-29T00:02:26;9.23;;;8.50;;
703;SDS011;335;48.694;9.120;2022-07-29T00:04:52;10.53;;;9.73;;
703;SDS011;335;48.694;9.120;2022-07-29T00:07:17;11.60;;;10.60;;
703;SDS011;335;48.694;9.120;2022-07-29T00:09:43;9.70;;;8.90;;
703;SDS011;335;48.694;9.120;2022-07-29T00:12:08;10.40;;;9.70;;
703;SDS011;335;48.694;9.120;2022-07-29T00:14:34;11.50;;;10.70;;
703;SDS011;335;48.694;9.120;2022-07-29T00:16:59;8.83;;;8.33;;
703;SDS011;335;48.694;9.120;2022-07-29T00:19:24;11.40;;;10.50;;
703;SDS011;335;48.694;9.120;2022-07-29T00:21:50;10.77;;;9.97;;
703;SDS011;335;48.694;9.120;2022-07-29T00:24:15;10.13;;;9.53;;
703;SDS011;335;48.694;9.120;2022-07-29T00:26:40;10.77;;;10.00;;
703;SDS011;335;48.694;9.120;2022-07-29T00:29:06;9.50;;;8.87;;
703;SDS011;335;48.694;9.120;2022-07-29T00:31:31;10.00;;;9.30;;
703;SDS011;335;48.694;9.120;2022-07-29T00:33:56;10.10;;;9.27;;
703;SDS011;335;48.694;9.120;2022-07-29T00:36:22;11.10;;;10.40;;
703;SDS011;335;48.694;9.120;2022-07-29T00:38:48;10.17;;;9.37;;
703;SDS011;335;48.694;9.120;2022-07-29T00:41:14;11.30;;;10.47;;
703;SDS011;335;48.694;9.120;2022-07-29T00:43:39;10.13;;;9.33;;
703;SDS011;335;48.694;9.120;2022-07-29T00:46:05;10.37;;;9.63;;
703;SDS011;335;48.694;9.120;2022-07-29T00:48:31;10.77;;;9.87;;
703;SDS011;335;48.694;9.120;2022-07-29T00:50:57;9.67;;;8.93;;
703;SDS011;335;48.694;9.120;2022-07-29T00:53:23;11.67;;;10.80;;
703;SDS011;335;48.694;9.120;2022-07-29T00:55:49;10.63;;;9.87;;
703;SDS011;335;48.694;9.120;2022-07-29T00:58:15;11.27;;;10.47;;
703;SDS011;335;48.694;9.120;2022-07-29T01:00:40;9.37;;;8.77;;
703;SDS011;335;48.694;9.120;2022-07-29T01:03:06;10.63;;;9.87;;
703;SDS011;335;48.694;9.120;2022-07-29T01:05:32;9.47;;;8.83;;
703;SDS011;335;48.694;9.120;2022-07-29T01:07:58;10.80;;;10.00;;
703;SDS011;335;48.694;9.120;2022-07-29T01:10:24;10.07;;;9.37;;
703;SDS011;335;48.694;9.120;2022-07-29T01:12:51;9.50;;;8.90;;
703;SDS011;335;48.694;9.120;2022-07-29T01:15:17;8.90;;;8.20;;
703;SDS011;335;48.694;9.120;2022-07-29T01:18:44;9.00;;;8.20;;
703;SDS011;335;48.694;9.120;2022-07-29T01:26:38;8.20;;;7.70;;
703;SDS011;335;48.694;9.120;2022-07-29T01:29:12;9.23;;;8.63;;
703;SDS011;335;48.694;9.120;2022-07-29T01:31:56;10.40;;;9.60;;
703;SDS011;335;48.694;9.120;2022-07-29T01:34:29;11.70;;;10.80;;
703;SDS011;335;48.694;9.120;2022-07-29T01:37:03;9.23;;;8.53;;
703;SDS011;335;48.694;9.120;2022-07-29T01:39:39;10.20;;;9.60;;
703;SDS011;335;48.694;9.120;2022-07-29T01:42:20;11.20;;;10.40;;
703;SDS011;335;48.694;9.120;2022-07-29T01:47:56;10.40;;;9.67;;
703;SDS011;335;48.694;9.120;2022-07-29T01:50:51;10.90;;;9.80;;
703;SDS011;335;48.694;9.120;2022-07-29T01:53:23;10.07;;;9.27;;
703;SDS011;335;48.694;9.120;2022-07-29T01:55:56;9.73;;;9.10;;
703;SDS011;335;48.694;9.120;2022-07-29T01:58:23;8.70;;;8.20;;
703;SDS011;335;48.694;9.120;2022-07-29T02:00:49;7.93;;;7.33;;
703;SDS011;335;48.694;9.120;2022-07-29T02:03:15;8.17;;;7.67;;
703;SDS011;335;48.694;9.120;2022-07-29T02:05:42;7.60;;;7.10;;
703;SDS011;335;48.694;9.120;2022-07-29T02:08:09;8.23;;;7.63;;
703;SDS011;335;48.694;9.120;2022-07-29T02:10:35;9.83;;;9.13;;
703;SDS011;335;48.694;9.120;2022-07-29T02:13:01;8.50;;;7.90;;
703;SDS011;335;48.694;9.120;2022-07-29T02:15:29;9.00;;;8.30;;
703;SDS011;335;48.694;9.120;2022-07-29T02:18:00;9.53;;;8.83;;
703;SDS011;335;48.694;9.120;2022-07-29T02:20:27;8.43;;;7.93;;
703;SDS011;335;48.694;9.120;2022-07-29T02:22:52;9.57;;;8.77;;
703;SDS011;335;48.694;9.120;2022-07-29T02:25:18;7.87;;;7.47;;
703;SDS011;335;48.694;9.120;2022-07-29T02:27:46;8.93;;;8.43;;
703;SDS011;335;48.694;9.120;2022-07-29T02:30:12;8.93;;;8.33;;
703;SDS011;335;48.694;9.120;2022-07-29T02:32:37;8.93;;;8.33;;
703;SDS011;335;48.694;9.120;2022-07-29T02:35:05;10.13;;;9.43;;
703;SDS011;335;48.694;9.120;2022-07-29T02:37:32;9.10;;;8.43;;
703;SDS011;335;48.694;9.120;2022-07-29T02:39:58;7.80;;;7.30;;
703;SDS011;335;48.694;9.120;2022-07-29T02:42:24;9.43;;;8.83;;
703;SDS011;335;48.694;9.120;2022-07-29T02:44:51;9.83;;;9.23;;
703;SDS011;335;48.694;9.120;2022-07-29T02:52:43;8.67;;;8.10;;
703;SDS011;335;48.694;9.120;2022-07-29T02:55:14;7.30;;;6.90;;
703;SDS011;335;48.694;9.120;2022-07-29T02:57:46;9.03;;;8.30;;
703;SDS011;335;48.694;9.120;2022-07-29T03:00:13;7.20;;;6.80;;
703;SDS011;335;48.694;9.120;2022-07-29T03:02:40;9.10;;;8.30;;
703;SDS011;335;48.694;9.120;2022-07-29T03:05:09;7.80;;;7.30;;
703;SDS011;335;48.694;9.120;2022-07-29T03:07:37;8.43;;;7.60;;
703;SDS011;335;48.694;9.120;2022-07-29T03:10:04;8.60;;;8.00;;
703;SDS011;335;48.694;9.120;2022-07-29T03:12:31;8.60;;;7.90;;
703;SDS011;335;48.694;9.120;2022-07-29T03:14:57;8.30;;;7.70;;
703;SDS011;335;48.694;9.120;2022-07-29T03:17:23;7.20;;;6.70;;
703;SDS011;335;48.694;9.120;2022-07-29T03:19:49;8.60;;;8.00;;
703;SDS011;335;48.694;9.120;2022-07-29T03:22:15;8.70;;;8.10;;
703;SDS011;335;48.694;9.120;2022-07-29T03:24:40;8.40;;;7.80;;
703;SDS011;335;48.694;9.120;2022-07-29T03:27:05;9.40;;;8.70;;
703;SDS011;335;48.694;9.120;2022-07-29T03:29:31;8.00;;;7.40;;
703;SDS011;335;48.694;9.120;2022-07-29T03:31:57;9.20;;;8.50;;
703;SDS011;335;48.694;9.120;2022-07-29T03:34:22;10.90;;;10.00;;
703;SDS011;335;48.694;9.120;2022-07-29T03:36:48;10.10;;;9.30;;
703;SDS011;335;48.694;9.120;2022-07-29T03:39:18;13.43;;;12.10;;
703;SDS011;335;48.694;9.120;2022-07-29T03:41:47;13.43;;;12.10;;
703;SDS011;335;48.694;9.120;2022-07-29T03:44:13;11.40;;;10.53;;
703;SDS011;335;48.694;9.120;2022-07-29T03:46:40;9.80;;;9.10;;
703;SDS011;335;48.694;9.120;2022-07-29T03:49:06;10.33;;;9.57;;
703;SDS011;335;48.694;9.120;2022-07-29T03:51:33;9.33;;;8.60;;
703;SDS011;335;48.694;9.120;2022-07-29T03:53:58;9.10;;;8.40;;
703;SDS011;335;48.694;9.120;2022-07-29T03:56:24;8.20;;;7.60;;
703;SDS011;335;48.694;9.120;2022-07-29T03:58:50;8.70;;;8.10;;
703;SDS011;335;48.694;9.120;2022-07-29T04:01:16;8.73;;;8.13;;
703;SDS011;335;48.694;9.120;2022-07-29T04:03:43;8.40;;;7.90;;
703;SDS011;335;48.694;9.120;2022-07-29T04:06:10;8.90;;;8.30;;
703;SDS011;335;48.694;9.120;2022-07-29T04:08:35;8.17;;;7.60;;
703;SDS011;335;48.694;9.120;2022-07-29T04:11:01;8.43;;;7.83;;
703;SDS011;335;48.694;9.120;2022-07-29T04:13:27;9.13;;;8.50;;
703;SDS011;335;48.694;9.120;2022-07-29T04:15:52;8.83;;;8.23;;
703;SDS011;335;48.694;9.120;2022-07-29T04:18:18;8.53;;;8.03;;
703;SDS011;335;48.694;9.120;2022-07-29T04:20:43;9.37;;;8.60;;
703;SDS011;335;48.694;9.120;2022-07-29T04:23:09;9.07;;;8.37;;
703;SDS011;335;48.694;9.120;2022-07-29T04:25:40;10.20;;;9.40;;
703;SDS011;335;48.694;9.120;2022-07-29T04:28:07;9.43;;;8.80;;
703;SDS011;335;48.694;9.120;2022-07-29T04:30:32;8.93;;;8.33;;
703;SDS011;335;48.694;9.120;2022-07-29T04:32:59;8.53;;;7.93;;
703;SDS011;335;48.694;9.120;2022-07-29T04:35:25;8.10;;;7.50;;
703;SDS011;335;48.694;9.120;2022-07-29T04:37:51;8.70;;;8.07;;
703;SDS011;335;48.694;9.120;2022-07-29T04:40:17;7.90;;;7.40;;
703;SDS011;335;48.694;9.120;2022-07-29T04:42:42;7.20;;;6.80;;
703;SDS011;335;48.694;9.120;2022-07-29T04:45:07;7.27;;;6.77;;
703;SDS011;335;48.694;9.120;2022-07-29T04:47:33;8.30;;;7.70;;
703;SDS011;335;48.694;9.120;2022-07-29T04:49:58;8.10;;;7.50;;
703;SDS011;335;48.694;9.120;2022-07-29T04:52:24;7.30;;;6.80;;
703;SDS011;335;48.694;9.120;2022-07-29T04:54:49;7.07;;;6.67;;
703;SDS011;335;48.694;9.120;2022-07-29T04:57:15;6.53;;;6.13;;
703;SDS011;335;48.694;9.120;2022-07-29T04:59:40;6.73;;;6.33;;
703;SDS011;335;48.694;9.120;2022-07-29T05:02:05;5.67;;;5.27;;
703;SDS011;335;48.694;9.120;2022-07-29T05:04:31;6.00;;;5.60;;
703;SDS011;335;48.694;9.120;2022-07-29T05:06:56;6.10;;;5.70;;
703;SDS011;335;48.694;9.120;2022-07-29T05:09:22;5.00;;;4.80;;
703;SDS011;335;48.694;9.120;2022-07-29T05:11:47;5.07;;;4.77;;
703;SDS011;335;48.694;9.120;2022-07-29T05:14:12;4.73;;;4.43;;
703;SDS011;335;48.694;9.120;2022-07-29T05:16:38;5.00;;;4.70;;
703;SDS011;335;48.694;9.120;2022-07-29T05:19:05;4.40;;;4.20;;
703;SDS011;335;48.694;9.120;2022-07-29T05:21:30;4.83;;;4.63;;
703;SDS011;335;48.694;9.120;2022-07-29T05:23:55;4.43;;;4.23;;
703;SDS011;335;48.694;9.120;2022-07-29T05:26:21;5.70;;;5.30;;
703;SDS011;335;48.694;9.120;2022-07-29T05:28:46;4.83;;;4.53;;
703;SDS011;335;48.694;9.120;2022-07-29T05:31:11;7.23;;;4.77;;
703;SDS011;335;48.694;9.120;2022-07-29T05:33:39;4.90;;;4.60;;
703;SDS011;335;48.694;9.120;2022-07-29T05:36:04;3.60;;;3.40;;
703;SDS011;335;48.694;9.120;2022-07-29T05:38:33;3.77;;;3.67;;
703;SDS011;335;48.694;9.120;2022-07-29T05:41:01;4.17;;;3.97;;
703;SDS011;335;48.694;9.120;2022-07-29T05:43:27;4.73;;;4.33;;
703;SDS011;335;48.694;9.120;2022-07-29T05:45:53;3.87;;;3.57;;
703;SDS011;335;48.694;9.120;2022-07-29T05:48:18;4.40;;;4.20;;
703;SDS011;335;48.694;9.120;2022-07-29T05:50:44;3.70;;;3.53;;
703;SDS011;335;48.694;9.120;2022-07-29T05:53:09;5.10;;;4.80;;
703;SDS011;335;48.694;9.120;2022-07-29T05:55:34;3.57;;;3.47;;
703;SDS011;335;48.694;9.120;2022-07-29T05:58:00;3.73;;;3.53;;
703;SDS011;335;48.694;9.120;2022-07-29T06:00:25;3.90;;;3.70;;
703;SDS011;335;48.694;9.120;2022-07-29T06:02:50;4.83;;;4.53;;
703;SDS011;335;48.694;9.120;2022-07-29T06:05:16;4.60;;;4.30;;
703;SDS011;335;48.694;9.120;2022-07-29T06:07:42;4.20;;;3.90;;
703;SDS011;335;48.694;9.120;2022-07-29T06:10:07;4.37;;;4.17;;
703;SDS011;335;48.694;9.120;2022-07-29T06:12:33;3.73;;;3.57;;
703;SDS011;335;48.694;9.120;2022-07-29T06:14:58;4.50;;;4.10;;
703;SDS011;335;48.694;9.120;2022-07-29T06:17:23;4.03;;;3.73;;
703;SDS011;335;48.694;9.120;2022-07-29T06:19:49;4.67;;;3.83;;
703;SDS011;335;48.694;9.120;2022-07-29T06:22:15;4.93;;;4.63;;
703;SDS011;335;48.694;9.120;2022-07-29T06:24:41;3.93;;;3.73;;
703;SDS011;335;48.694;9.120;2022-07-29T06:27:08;4.13;;;3.93;;
703;SDS011;335;48.694;9.120;2022-07-29T06:29:34;4.10;;;3.90;;
703;SDS011;335;48.694;9.120;2022-07-29T06:32:00;3.73;;;3.53;;
703;SDS011;335;48.694;9.120;2022-07-29T06:34:25;4.20;;;3.93;;
703;SDS011;335;48.694;9.120;2022-07-29T06:36:51;4.60;;;4.30;;
703;SDS011;335;48.694;9.120;2022-07-29T06:39:17;5.20;;;4.70;;
703;SDS011;335;48.694;9.120;2022-07-29T06:41:45;4.43;;;4.03;;
703;SDS011;335;48.694;9.120;2022-07-29T06:44:12;3.90;;;3.60;;
703;SDS011;335;48.694;9.120;2022-07-29T06:46:37;4.47;;;4.03;;
703;SDS011;335;48.694;9.120;2022-07-29T06:49:03;4.10;;;3.90;;
703;SDS011;335;48.694;9.120;2022-07-29T06:51:29;4.73;;;4.43;;
703;SDS011;335;48.694;9.120;2022-07-29T06:53:54;5.00;;;4.73;;
703;SDS011;335;48.694;9.120;2022-07-29T06:56:20;4.53;;;4.23;;
703;SDS011;335;48.694;9.120;2022-07-29T06:58:45;5.20;;;4.67;;
703;SDS011;335;48.694;9.120;2022-07-29T07:01:11;4.13;;;3.93;;
703;SDS011;335;48.694;9.120;2022-07-29T07:03:36;4.40;;;4.10;;
703;SDS011;335;48.694;9.120;2022-07-29T07:06:02;4.17;;;3.97;;
703;SDS011;335;48.694;9.120;2022-07-29T07:08:28;5.33;;;4.93;;
703;SDS011;335;48.694;9.120;2022-07-29T07:10:53;8.03;;;4.57;;
703;SDS011;335;48.694;9.120;2022-07-29T07:13:20;4.20;;;4.00;;
703;SDS011;335;48.694;9.120;2022-07-29T07:15:45;4.60;;;4.30;;
703;SDS011;335;48.694;9.120;2022-07-29T07:18:12;5.27;;;4.97;;
703;SDS011;335;48.694;9.120;2022-07-29T07:20:38;5.10;;;4.80;;
703;SDS011;335;48.694;9.120;2022-07-29T07:23:03;5.13;;;4.83;;
703;SDS011;335;48.694;9.120;2022-07-29T07:25:29;5.60;;;4.83;;
703;SDS011;335;48.694;9.120;2022-07-29T07:27:55;4.50;;;4.30;;
703;SDS011;335;48.694;9.120;2022-07-29T07:30:20;5.53;;;5.00;;
703;SDS011;335;48.694;9.120;2022-07-29T07:32:45;5.53;;;5.17;;
703;SDS011;335;48.694;9.120;2022-07-29T07:35:11;4.53;;;4.33;;
703;SDS011;335;48.694;9.120;2022-07-29T07:37:36;5.10;;;4.70;;
703;SDS011;335;48.694;9.120;2022-07-29T07:40:03;4.93;;;4.63;;
703;SDS011;335;48.694;9.120;2022-07-29T07:42:29;4.90;;;4.60;;
703;SDS011;335;48.694;9.120;2022-07-29T07:44:54;4.30;;;4.00;;
703;SDS011;335;48.694;9.120;2022-07-29T07:47:20;5.23;;;4.73;;
703;SDS011;335;48.694;9.120;2022-07-29T07:49:46;4.70;;;4.40;;
703;SDS011;335;48.694;9.120;2022-07-29T07:52:12;4.90;;;4.60;;
703;SDS011;335;48.694;9.120;2022-07-29T07:54:38;4.53;;;4.33;;
703;SDS011;335;48.694;9.120;2022-07-29T07:57:03;4.40;;;4.10;;
703;SDS011;335;48.694;9.120;2022-07-29T07:59:29;4.10;;;3.80;;
703;SDS011;335;48.694;9.120;2022-07-29T08:01:54;6.03;;;4.73;;
703;SDS011;335;48.694;9.120;2022-07-29T08:04:19;4.53;;;4.13;;
703;SDS011;335;48.694;9.120;2022-07-29T08:06:45;4.13;;;3.93;;
703;SDS011;335;48.694;9.120;2022-07-29T08:09:10;3.90;;;3.70;;
703;SDS011;335;48.694;9.120;2022-07-29T08:11:35;3.70;;;3.40;;
703;SDS011;335;48.694;9.120;2022-07-29T08:14:01;5.10;;;4.70;;
703;SDS011;335;48.694;9.120;2022-07-29T08:16:26;4.10;;;3.90;;
703;SDS011;335;48.694;9.120;2022-07-29T08:18:52;3.80;;;3.50;;
703;SDS011;335;48.694;9.120;2022-07-29T08:21:21;4.07;;;3.73;;
703;SDS011;335;48.694;9.120;2022-07-29T08:23:47;4.47;;;4.07;;
703;SDS011;335;48.694;9.120;2022-07-29T08:26:17;3.80;;;3.60;;
703;SDS011;335;48.694;9.120;2022-07-29T08:28:44;3.80;;;3.70;;
703;SDS011;335;48.694;9.120;2022-07-29T08:31:11;4.07;;;3.67;;
703;SDS011;335;48.694;9.120;2022-07-29T08:33:37;3.50;;;3.30;;
703;SDS011;335;48.694;9.120;2022-07-29T08:36:02;3.57;;;3.27;;
703;SDS011;335;48.694;9.120;2022-07-29T08:38:28;3.50;;;3.20;;
703;SDS011;335;48.694;9.120;2022-07-29T08:40:54;3.37;;;3.17;;
703;SDS011;335;48.694;9.120;2022-07-29T08:43:19;3.43;;;3.33;;
703;SDS011;335;48.694;9.120;2022-07-29T08:45:46;4.50;;;4.10;;
703;SDS011;335;48.694;9.120;2022-07-29T08:48:13;4.90;;;4.60;;
703;SDS011;335;48.694;9.120;2022-07-29T08:50:39;4.03;;;3.83;;
703;SDS011;335;48.694;9.120;2022-07-29T08:53:07;4.00;;;3.80;;
703;SDS011;335;48.694;9.120;2022-07-29T08:55:33;4.40;;;4.10;;
703;SDS011;335;48.694;9.120;2022-07-29T08:57:59;3.57;;;3.27;;
703;SDS011;335;48.694;9.120;2022-07-29T09:00:25;3.40;;;3.20;;
703;SDS011;335;48.694;9.120;2022-07-29T09:02:51;3.00;;;2.80;;
703;SDS011;335;48.694;9.120;2022-07-29T09:05:21;4.13;;;3.60;;
703;SDS011;335;48.694;9.120;2022-07-29T09:07:48;3.80;;;3.50;;
703;SDS011;335;48.694;9.120;2022-07-29T09:10:15;3.50;;;3.30;;
703;SDS011;335;48.694;9.120;2022-07-29T09:12:40;3.30;;;3.03;;
703;SDS011;335;48.694;9.120;2022-07-29T09:15:06;2.90;;;2.70;;
703;SDS011;335;48.694;9.120;2022-07-29T09:17:41;3.63;;;3.43;;
703;SDS011;335;48.694;9.120;2022-07-29T09:20:15;3.60;;;3.40;;
703;SDS011;335;48.694;9.120;2022-07-29T09:22:45;4.03;;;3.80;;
703;SDS011;335;48.694;9.120;2022-07-29T09:25:14;3.53;;;3.10;;
703;SDS011;335;48.694;9.120;2022-07-29T09:27:40;3.70;;;3.40;;
703;SDS011;335;48.694;9.120;2022-07-29T09:30:09;3.20;;;3.03;;
703;SDS011;335;48.694;9.120;2022-07-29T09:32:53;3.33;;;3.13;;
703;SDS011;335;48.694;9.120;2022-07-29T09:35:24;2.90;;;2.70;;
703;SDS011;335;48.694;9.120;2022-07-29T09:37:50;3.37;;;3.17;;
703;SDS011;335;48.694;9.120;2022-07-29T09:40:16;4.27;;;3.97;;
703;SDS011;335;48.694;9.120;2022-07-29T09:42:43;4.60;;;3.40;;
703;SDS011;335;48.694;9.120;2022-07-29T09:45:09;2.93;;;2.80;;
703;SDS011;335;48.694;9.120;2022-07-29T09:50:09;3.60;;;3.30;;
703;SDS011;335;48.694;9.120;2022-07-29T09:52:43;3.40;;;3.30;;
703;SDS011;335;48.694;9.120;2022-07-29T09:55:10;6.13;;;4.20;;
703;SDS011;335;48.694;9.120;2022-07-29T09:57:36;4.20;;;3.90;;
703;SDS011;335;48.694;9.120;2022-07-29T10:02:35;3.20;;;3.10;;
703;SDS011;335;48.694;9.120;2022-07-29T10:05:02;3.20;;;3.00;;
703;SDS011;335;48.694;9.120;2022-07-29T10:07:46;3.80;;;3.70;;
703;SDS011;335;48.694;9.120;2022-07-29T10:10:33;3.50;;;3.30;;
703;SDS011;335;48.694;9.120;2022-07-29T10:13:00;3.20;;;3.00;;
703;SDS011;335;48.694;9.120;2022-07-29T10:15:28;3.70;;;3.40;;
703;SDS011;335;48.694;9.120;2022-07-29T10:17:55;3.33;;;3.13;;
703;SDS011;335;48.694;9.120;2022-07-29T10:20:21;3.70;;;3.50;;
703;SDS011;335;48.694;9.120;2022-07-29T10:22:48;3.53;;;3.33;;
703;SDS011;335;48.694;9.120;2022-07-29T10:25:14;2.90;;;2.70;;
703;SDS011;335;48.694;9.120;2022-07-29T10:27:41;4.07;;;3.57;;
703;SDS011;335;48.694;9.120;2022-07-29T10:30:07;3.50;;;3.30;;
703;SDS011;335;48.694;9.120;2022-07-29T10:32:35;2.93;;;2.80;;
703;SDS011;335;48.694;9.120;2022-07-29T10:35:18;2.97;;;2.77;;
703;SDS011;335;48.694;9.120;2022-07-29T10:44:14;4.00;;;3.80;;
703;SDS011;335;48.694;9.120;2022-07-29T10:46:40;3.47;;;3.27;;
703;SDS011;335;48.694;9.120;2022-07-29T10:52:04;4.57;;;4.27;;
703;SDS011;335;48.694;9.120;2022-07-29T10:59:44;5.73;;;5.23;;
703;SDS011;335;48.694;9.120;2022-07-29T11:02:57;4.70;;;4.30;;
703;SDS011;335;48.694;9.120;2022-07-29T11:07:22;6.53;;;4.80;;
703;SDS011;335;48.694;9.120;2022-07-29T11:10:19;5.43;;;4.90;;
703;SDS011;335;48.694;9.120;2022-07-29T11:15:11;4.07;;;3.77;;
703;SDS011;335;48.694;9.120;2022-07-29T11:20:34;5.17;;;4.67;;
703;SDS011;335;48.694;9.120;2022-07-29T11:23:18;5.33;;;4.93;;
703;SDS011;335;48.694;9.120;2022-07-29T11:28:50;5.70;;;5.30;;
703;SDS011;335;48.694;9.120;2022-07-29T11:31:19;5.57;;;5.27;;
703;SDS011;335;48.694;9.120;2022-07-29T11:39:38;7.47;;;6.93;;
703;SDS011;335;48.694;9.120;2022-07-29T11:44:53;7.83;;;7.10;;
703;SDS011;335;48.694;9.120;2022-07-29T11:47:19;7.67;;;7.17;;
703;SDS011;335;48.694;9.120;2022-07-29T11:49:45;7.47;;;6.77;;
703;SDS011;335;48.694;9.120;2022-07-29T11:52:10;7.73;;;7.20;;
703;SDS011;335;48.694;9.120;2022-07-29T11:54:37;8.50;;;7.57;;
703;SDS011;335;48.694;9.120;2022-07-29T11:57:06;7.97;;;7.37;;
703;SDS011;335;48.694;9.120;2022-07-29T11:59:31;9.67;;;7.43;;
703;SDS011;335;48.694;9.120;2022-07-29T12:02:04;8.93;;;8.23;;
703;SDS011;335;48.694;9.120;2022-07-29T12:04:29;9.67;;;8.80;;
703;SDS011;335;48.694;9.120;2022-07-29T12:06:55;7.67;;;7.17;;
703;SDS011;335;48.694;9.120;2022-07-29T12:09:21;8.27;;;7.57;;
703;SDS011;335;48.694;9.120;2022-07-29T12:11:48;9.00;;;8.40;;
703;SDS011;335;48.694;9.120;2022-07-29T12:14:27;9.67;;;8.87;;
703;SDS011;335;48.694;9.120;2022-07-29T12:16:53;6.90;;;6.20;;
703;SDS011;335;48.694;9.120;2022-07-29T12:19:18;6.87;;;6.33;;
703;SDS011;335;48.694;9.120;2022-07-29T12:21:47;7.70;;;7.00;;
703;SDS011;335;48.694;9.120;2022-07-29T12:24:13;8.17;;;7.40;;
703;SDS011;335;48.694;9.120;2022-07-29T12:26:51;9.60;;;8.37;;
703;SDS011;335;48.694;9.120;2022-07-29T12:29:21;6.90;;;6.40;;
703;SDS011;335;48.694;9.120;2022-07-29T12:31:50;7.00;;;6.60;;
703;SDS011;335;48.694;9.120;2022-07-29T12:34:18;8.53;;;7.83;;
703;SDS011;335;48.694;9.120;2022-07-29T12:36:44;7.13;;;6.63;;
703;SDS011;335;48.694;9.120;2022-07-29T12:39:10;7.90;;;7.40;;
703;SDS011;335;48.694;9.120;2022-07-29T12:41:36;8.40;;;7.73;;
703;SDS011;335;48.694;9.120;2022-07-29T12:44:02;8.23;;;7.43;;
703;SDS011;335;48.694;9.120;2022-07-29T12:46:27;7.43;;;6.90;;
703;SDS011;335;48.694;9.120;2022-07-29T12:48:53;7.93;;;7.40;;
703;SDS011;335;48.694;9.120;2022-07-29T12:51:29;7.63;;;7.13;;
703;SDS011;335;48.694;9.120;2022-07-29T12:54:13;6.70;;;6.20;;
703;SDS011;335;48.694;9.120;2022-07-29T12:56:43;6.83;;;6.20;;
703;SDS011;335;48.694;9.120;2022-07-29T12:59:16;6.60;;;6.10;;
703;SDS011;335;48.694;9.120;2022-07-29T13:01:45;8.60;;;6.93;;
703;SDS011;335;48.694;9.120;2022-07-29T13:04:24;7.87;;;7.30;;
703;SDS011;335;48.694;9.120;2022-07-29T13:07:00;8.07;;;7.47;;
703;SDS011;335;48.694;9.120;2022-07-29T13:12:10;6.57;;;6.07;;
703;SDS011;335;48.694;9.120;2022-07-29T13:17:05;7.43;;;6.80;;
703;SDS011;335;48.694;9.120;2022-07-29T13:19:33;7.83;;;7.17;;
703;SDS011;335;48.694;9.120;2022-07-29T13:22:00;7.53;;;6.93;;
703;SDS011;335;48.694;9.120;2022-07-29T13:24:25;8.23;;;7.47;;
703;SDS011;335;48.694;9.120;2022-07-29T13:26:50;9.10;;;8.43;;
703;SDS011;335;48.694;9.120;2022-07-29T13:29:16;9.63;;;8.73;;
703;SDS011;335;48.694;9.120;2022-07-29T13:31:42;7.70;;;7.20;;
703;SDS011;335;48.694;9.120;2022-07-29T13:34:07;7.53;;;6.83;;
703;SDS011;335;48.694;9.120;2022-07-29T13:36:32;8.67;;;7.97;;
703;SDS011;335;48.694;9.120;2022-07-29T13:38:58;7.17;;;6.60;;
703;SDS011;335;48.694;9.120;2022-07-29T13:41:23;6.77;;;6.37;;
703;SDS011;335;48.694;9.120;2022-07-29T13:43:49;6.53;;;6.17;;
703;SDS011;335;48.694;9.120;2022-07-29T13:46:14;7.23;;;6.63;;
703;SDS011;335;48.694;9.120;2022-07-29T13:48:39;6.90;;;6.50;;
703;SDS011;335;48.694;9.120;2022-07-29T13:51:05;5.87;;;5.47;;
703;SDS011;335;48.694;9.120;2022-07-29T13:53:30;7.47;;;6.97;;
703;SDS011;335;48.694;9.120;2022-07-29T13:55:55;7.57;;;6.97;;
703;SDS011;335;48.694;9.120;2022-07-29T13:58:21;6.87;;;6.33;;
703;SDS011;335;48.694;9.120;2022-07-29T14:00:46;7.23;;;6.67;;
703;SDS011;335;48.694;9.120;2022-07-29T14:03:12;6.90;;;6.50;;
703;SDS011;335;48.694;9.120;2022-07-29T14:05:37;6.40;;;6.00;;
703;SDS011;335;48.694;9.120;2022-07-29T14:08:03;7.10;;;6.60;;
703;SDS011;335;48.694;9.120;2022-07-29T14:10:28;6.93;;;6.43;;
703;SDS011;335;48.694;9.120;2022-07-29T14:12:54;6.93;;;6.33;;
703;SDS011;335;48.694;9.120;2022-07-29T14:15:19;5.47;;;5.13;;
703;SDS011;335;48.694;9.120;2022-07-29T14:17:45;5.80;;;5.50;;
703;SDS011;335;48.694;9.120;2022-07-29T14:20:10;6.60;;;6.20;;
703;SDS011;335;48.694;9.120;2022-07-29T14:22:35;6.10;;;5.70;;
703;SDS011;335;48.694;9.120;2022-07-29T14:25:01;7.17;;;6.60;;
703;SDS011;335;48.694;9.120;2022-07-29T14:27:26;6.57;;;6.07;;
703;SDS011;335;48.694;9.120;2022-07-29T14:29:51;6.63;;;6.10;;
703;SDS011;335;48.694;9.120;2022-07-29T14:32:17;5.77;;;5.47;;
703;SDS011;335;48.694;9.120;2022-07-29T14:34:43;7.27;;;6.57;;
703;SDS011;335;48.694;9.120;2022-07-29T14:37:08;5.97;;;5.67;;
703;SDS011;335;48.694;9.120;2022-07-29T14:39:34;6.93;;;6.53;;
703;SDS011;335;48.694;9.120;2022-07-29T14:42:00;8.23;;;7.63;;
703;SDS011;335;48.694;9.120;2022-07-29T14:44:26;7.37;;;6.90;;
703;SDS011;335;48.694;9.120;2022-07-29T14:46:55;7.03;;;6.50;;
703;SDS011;335;48.694;9.120;2022-07-29T14:49:21;7.37;;;6.67;;
703;SDS011;335;48.694;9.120;2022-07-29T14:51:46;7.20;;;6.60;;
703;SDS011;335;48.694;9.120;2022-07-29T14:54:12;7.73;;;7.27;;
703;SDS011;335;48.694;9.120;2022-07-29T14:56:37;7.03;;;6.53;;
703;SDS011;335;48.694;9.120;2022-07-29T14:59:03;7.07;;;6.50;;
703;SDS011;335;48.694;9.120;2022-07-29T15:01:28;6.60;;;6.03;;
703;SDS011;335;48.694;9.120;2022-07-29T15:03:54;7.07;;;6.57;;
703;SDS011;335;48.694;9.120;2022-07-29T15:06:19;7.53;;;7.13;;
703;SDS011;335;48.694;9.120;2022-07-29T15:08:44;9.43;;;8.77;;
703;SDS011;335;48.694;9.120;2022-07-29T15:11:10;11.13;;;10.30;;
703;SDS011;335;48.694;9.120;2022-07-29T15:13:35;10.20;;;9.27;;
703;SDS011;335;48.694;9.120;2022-07-29T15:16:01;9.20;;;8.40;;
703;SDS011;335;48.694;9.120;2022-07-29T15:18:26;7.73;;;7.13;;
703;SDS011;335;48.694;9.120;2022-07-29T15:20:51;7.60;;;7.10;;
703;SDS011;335;48.694;9.120;2022-07-29T15:23:17;7.27;;;6.77;;
703;SDS011;335;48.694;9.120;2022-07-29T15:25:42;6.90;;;6.40;;
703;SDS011;335;48.694;9.120;2022-07-29T15:28:08;6.47;;;6.07;;
703;SDS011;335;48.694;9.120;2022-07-29T15:30:33;7.87;;;7.27;;
703;SDS011;335;48.694;9.120;2022-07-29T15:33:01;8.30;;;7.80;;
703;SDS011;335;48.694;9.120;2022-07-29T15:35:27;7.93;;;7.20;;
703;SDS011;335;48.694;9.120;2022-07-29T15:37:54;7.03;;;6.63;;
703;SDS011;335;48.694;9.120;2022-07-29T15:40:19;7.80;;;7.20;;
703;SDS011;335;48.694;9.120;2022-07-29T15:42:45;6.47;;;6.07;;
703;SDS011;335;48.694;9.120;2022-07-29T15:45:10;7.60;;;6.97;;
703;SDS011;335;48.694;9.120;2022-07-29T15:47:35;7.30;;;6.80;;
703;SDS011;335;48.694;9.120;2022-07-29T15:50:01;8.20;;;7.60;;
703;SDS011;335;48.694;9.120;2022-07-29T15:52:26;7.27;;;6.67;;
703;SDS011;335;48.694;9.120;2022-07-29T15:54:55;7.00;;;6.50;;
703;SDS011;335;48.694;9.120;2022-07-29T15:57:21;7.47;;;6.97;;
703;SDS011;335;48.694;9.120;2022-07-29T15:59:46;6.97;;;6.53;;
703;SDS011;335;48.694;9.120;2022-07-29T16:02:11;7.90;;;7.27;;
703;SDS011;335;48.694;9.120;2022-07-29T16:04:37;7.90;;;7.40;;
703;SDS011;335;48.694;9.120;2022-07-29T16:07:02;7.80;;;7.17;;
703;SDS011;335;48.694;9.120;2022-07-29T16:09:28;7.53;;;7.03;;
703;SDS011;335;48.694;9.120;2022-07-29T16:11:53;8.30;;;7.70;;
703;SDS011;335;48.694;9.120;2022-07-29T16:14:20;7.30;;;6.90;;
703;SDS011;335;48.694;9.120;2022-07-29T16:16:45;8.40;;;7.80;;
703;SDS011;335;48.694;9.120;2022-07-29T16:19:10;7.90;;;7.30;;
703;SDS011;335;48.694;9.120;2022-07-29T16:21:36;7.40;;;6.90;;
703;SDS011;335;48.694;9.120;2022-07-29T16:24:02;9.10;;;8.27;;
703;SDS011;335;48.694;9.120;2022-07-29T16:26:28;7.00;;;6.50;;
703;SDS011;335;48.694;9.120;2022-07-29T16:28:54;7.13;;;6.60;;
703;SDS011;335;48.694;9.120;2022-07-29T16:31:19;6.23;;;5.90;;
703;SDS011;335;48.694;9.120;2022-07-29T16:33:47;6.97;;;6.47;;
703;SDS011;335;48.694;9.120;2022-07-29T16:36:16;8.10;;;7.53;;
703;SDS011;335;48.694;9.120;2022-07-29T16:38:42;8.00;;;7.50;;